sensor_id;sensor_type;location;lat;lon;timestamp;P1;durP1;ratioP1;P2;durP2;ratioP2
67776;SDS011;54576;52.020;5.536;2022-07-29T00:01:20;7.65;;;1.00;;
67776;SDS011;54576;52.020;5.536;2022-07-29T00:03:46;2.67;;;1.20;;
67776;SDS011;54576;52.020;5.536;2022-07-29T00:06:11;1.73;;;1.02;;
67776;SDS011;54576;52.020;5.536;2022-07-29T00:08:37;7.65;;;1.20;;
67776;SDS011;54576;52.020;5.536;2022-07-29T00:11:03;9.93;;;1.48;;
67776;SDS011;54576;52.020;5.536;2022-07-29T00:13:29;5.18;;;1.00;;
67776;SDS011;54576;52.020;5.536;2022-07-29T00:15:54;11.23;;;1.30;;
67776;SDS011;54576;52.020;5.536;2022-07-29T00:18:20;5.75;;;1.10;;
67776;SDS011;54576;52.020;5.536;2022-07-29T00:20:45;1.02;;;0.80;;
67776;SDS011;54576;52.020;5.536;2022-07-29T00:23:11;2.53;;;1.20;;
67776;SDS011;54576;52.020;5.536;2022-07-29T00:25:36;5.10;;;1.60;;
67776;SDS011;54576;52.020;5.536;2022-07-29T00:28:03;3.40;;;1.10;;
67776;SDS011;54576;52.020;5.536;2022-07-29T00:30:29;2.05;;;1.20;;
67776;SDS011;54576;52.020;5.536;2022-07-29T00:32:55;4.53;;;1.20;;
67776;SDS011;54576;52.020;5.536;2022-07-29T00:35:20;5.78;;;1.27;;
67776;SDS011;54576;52.020;5.536;2022-07-29T00:38:04;7.45;;;1.52;;
67776;SDS011;54576;52.020;5.536;2022-07-29T00:40:30;5.20;;;1.33;;
67776;SDS011;54576;52.020;5.536;2022-07-29T00:42:56;3.72;;;1.20;;
67776;SDS011;54576;52.020;5.536;2022-07-29T00:45:21;6.47;;;1.27;;
67776;SDS011;54576;52.020;5.536;2022-07-29T00:47:47;5.25;;;1.50;;
67776;SDS011;54576;52.020;5.536;2022-07-29T00:50:13;4.30;;;1.00;;
67776;SDS011;54576;52.020;5.536;2022-07-29T00:52:40;1.63;;;1.30;;
67776;SDS011;54576;52.020;5.536;2022-07-29T00:55:07;3.33;;;1.10;;
67776;SDS011;54576;52.020;5.536;2022-07-29T00:57:35;4.18;;;1.05;;
67776;SDS011;54576;52.020;5.536;2022-07-29T01:00:01;3.00;;;1.40;;
67776;SDS011;54576;52.020;5.536;2022-07-29T01:02:31;2.50;;;1.10;;
67776;SDS011;54576;52.020;5.536;2022-07-29T01:04:57;11.85;;;1.38;;
67776;SDS011;54576;52.020;5.536;2022-07-29T01:07:25;3.88;;;1.30;;
67776;SDS011;54576;52.020;5.536;2022-07-29T01:09:52;3.65;;;1.30;;
67776;SDS011;54576;52.020;5.536;2022-07-29T01:12:21;2.45;;;1.33;;
67776;SDS011;54576;52.020;5.536;2022-07-29T01:14:49;9.10;;;1.80;;
67776;SDS011;54576;52.020;5.536;2022-07-29T01:31:25;2.70;;;1.23;;
67776;SDS011;54576;52.020;5.536;2022-07-29T01:34:12;3.05;;;1.17;;
67776;SDS011;54576;52.020;5.536;2022-07-29T01:36:48;6.18;;;1.42;;
67776;SDS011;54576;52.020;5.536;2022-07-29T01:42:05;5.18;;;1.42;;
67776;SDS011;54576;52.020;5.536;2022-07-29T01:47:35;7.05;;;1.27;;
67776;SDS011;54576;52.020;5.536;2022-07-29T01:50:10;5.35;;;1.40;;
67776;SDS011;54576;52.020;5.536;2022-07-29T01:52:39;2.15;;;1.00;;
67776;SDS011;54576;52.020;5.536;2022-07-29T01:55:11;8.52;;;1.25;;
67776;SDS011;54576;52.020;5.536;2022-07-29T01:57:40;3.78;;;1.13;;
67776;SDS011;54576;52.020;5.536;2022-07-29T02:00:10;5.55;;;1.40;;
67776;SDS011;54576;52.020;5.536;2022-07-29T02:02:37;2.75;;;1.10;;
67776;SDS011;54576;52.020;5.536;2022-07-29T02:07:32;9.32;;;1.10;;
67776;SDS011;54576;52.020;5.536;2022-07-29T02:09:59;8.73;;;1.70;;
67776;SDS011;54576;52.020;5.536;2022-07-29T02:12:29;3.58;;;1.15;;
67776;SDS011;54576;52.020;5.536;2022-07-29T02:14:56;15.95;;;1.13;;
67776;SDS011;54576;52.020;5.536;2022-07-29T02:17:28;2.75;;;1.15;;
67776;SDS011;54576;52.020;5.536;2022-07-29T02:19:59;5.22;;;1.40;;
67776;SDS011;54576;52.020;5.536;2022-07-29T02:22:28;6.32;;;1.48;;
67776;SDS011;54576;52.020;5.536;2022-07-29T02:24:56;2.70;;;1.33;;
67776;SDS011;54576;52.020;5.536;2022-07-29T02:27:23;5.53;;;1.48;;
67776;SDS011;54576;52.020;5.536;2022-07-29T02:29:50;4.53;;;1.38;;
67776;SDS011;54576;52.020;5.536;2022-07-29T02:32:18;4.00;;;1.38;;
67776;SDS011;54576;52.020;5.536;2022-07-29T02:34:46;5.07;;;1.40;;
67776;SDS011;54576;52.020;5.536;2022-07-29T02:37:13;3.72;;;1.20;;
67776;SDS011;54576;52.020;5.536;2022-07-29T02:39:42;2.90;;;1.50;;
67776;SDS011;54576;52.020;5.536;2022-07-29T02:42:11;3.17;;;1.50;;
67776;SDS011;54576;52.020;5.536;2022-07-29T02:44:39;5.10;;;1.60;;
67776;SDS011;54576;52.020;5.536;2022-07-29T02:52:47;2.55;;;1.30;;
67776;SDS011;54576;52.020;5.536;2022-07-29T02:55:16;2.10;;;1.50;;
67776;SDS011;54576;52.020;5.536;2022-07-29T02:57:47;9.30;;;1.63;;
67776;SDS011;54576;52.020;5.536;2022-07-29T03:00:19;2.92;;;1.30;;
67776;SDS011;54576;52.020;5.536;2022-07-29T03:05:18;7.50;;;1.17;;
67776;SDS011;54576;52.020;5.536;2022-07-29T03:07:46;4.18;;;1.85;;
67776;SDS011;54576;52.020;5.536;2022-07-29T03:10:16;6.40;;;1.70;;
67776;SDS011;54576;52.020;5.536;2022-07-29T03:12:42;3.22;;;1.55;;
67776;SDS011;54576;52.020;5.536;2022-07-29T03:15:09;2.42;;;1.67;;
67776;SDS011;54576;52.020;5.536;2022-07-29T03:17:35;5.80;;;1.73;;
67776;SDS011;54576;52.020;5.536;2022-07-29T03:20:02;4.05;;;1.58;;
67776;SDS011;54576;52.020;5.536;2022-07-29T03:22:29;5.80;;;1.70;;
67776;SDS011;54576;52.020;5.536;2022-07-29T03:24:55;3.63;;;2.03;;
67776;SDS011;54576;52.020;5.536;2022-07-29T03:27:21;4.55;;;1.70;;
67776;SDS011;54576;52.020;5.536;2022-07-29T03:29:47;8.02;;;1.85;;
67776;SDS011;54576;52.020;5.536;2022-07-29T03:32:12;2.35;;;1.60;;
67776;SDS011;54576;52.020;5.536;2022-07-29T03:34:38;3.58;;;1.60;;
67776;SDS011;54576;52.020;5.536;2022-07-29T03:37:04;5.68;;;1.70;;
67776;SDS011;54576;52.020;5.536;2022-07-29T03:39:31;6.40;;;1.67;;
67776;SDS011;54576;52.020;5.536;2022-07-29T03:42:01;3.53;;;1.60;;
67776;SDS011;54576;52.020;5.536;2022-07-29T03:44:32;4.80;;;1.50;;
67776;SDS011;54576;52.020;5.536;2022-07-29T03:46:59;4.38;;;1.85;;
67776;SDS011;54576;52.020;5.536;2022-07-29T03:49:26;6.07;;;1.45;;
67776;SDS011;54576;52.020;5.536;2022-07-29T03:51:54;10.00;;;1.50;;
67776;SDS011;54576;52.020;5.536;2022-07-29T03:54:20;4.63;;;1.70;;
67776;SDS011;54576;52.020;5.536;2022-07-29T03:56:46;6.13;;;1.80;;
67776;SDS011;54576;52.020;5.536;2022-07-29T03:59:16;7.63;;;1.70;;
67776;SDS011;54576;52.020;5.536;2022-07-29T04:01:44;4.40;;;1.60;;
67776;SDS011;54576;52.020;5.536;2022-07-29T04:04:11;1.35;;;1.25;;
67776;SDS011;54576;52.020;5.536;2022-07-29T04:06:40;8.95;;;2.08;;
67776;SDS011;54576;52.020;5.536;2022-07-29T04:09:07;5.93;;;1.85;;
67776;SDS011;54576;52.020;5.536;2022-07-29T04:11:33;4.68;;;1.73;;
67776;SDS011;54576;52.020;5.536;2022-07-29T04:13:59;6.35;;;2.30;;
67776;SDS011;54576;52.020;5.536;2022-07-29T04:16:24;4.72;;;1.52;;
67776;SDS011;54576;52.020;5.536;2022-07-29T04:18:50;3.05;;;1.70;;
67776;SDS011;54576;52.020;5.536;2022-07-29T04:21:16;4.80;;;1.65;;
67776;SDS011;54576;52.020;5.536;2022-07-29T04:23:41;2.55;;;1.55;;
67776;SDS011;54576;52.020;5.536;2022-07-29T04:26:10;5.68;;;1.92;;
67776;SDS011;54576;52.020;5.536;2022-07-29T04:28:35;9.27;;;2.33;;
67776;SDS011;54576;52.020;5.536;2022-07-29T04:31:04;3.83;;;1.70;;
67776;SDS011;54576;52.020;5.536;2022-07-29T04:33:30;6.65;;;1.83;;
67776;SDS011;54576;52.020;5.536;2022-07-29T04:35:55;4.82;;;2.03;;
67776;SDS011;54576;52.020;5.536;2022-07-29T04:38:21;6.05;;;1.73;;
67776;SDS011;54576;52.020;5.536;2022-07-29T04:40:47;3.47;;;1.80;;
67776;SDS011;54576;52.020;5.536;2022-07-29T04:43:12;4.65;;;1.70;;
67776;SDS011;54576;52.020;5.536;2022-07-29T04:45:38;9.32;;;1.55;;
67776;SDS011;54576;52.020;5.536;2022-07-29T04:48:04;2.45;;;1.42;;
67776;SDS011;54576;52.020;5.536;2022-07-29T04:50:30;4.60;;;1.90;;
67776;SDS011;54576;52.020;5.536;2022-07-29T04:52:55;4.30;;;1.83;;
67776;SDS011;54576;52.020;5.536;2022-07-29T04:55:21;6.00;;;1.50;;
67776;SDS011;54576;52.020;5.536;2022-07-29T04:57:46;5.82;;;1.85;;
67776;SDS011;54576;52.020;5.536;2022-07-29T05:00:13;4.85;;;1.90;;
67776;SDS011;54576;52.020;5.536;2022-07-29T05:02:39;5.50;;;1.70;;
67776;SDS011;54576;52.020;5.536;2022-07-29T05:05:05;5.35;;;1.48;;
67776;SDS011;54576;52.020;5.536;2022-07-29T05:07:31;4.85;;;1.55;;
67776;SDS011;54576;52.020;5.536;2022-07-29T05:09:57;4.18;;;1.40;;
67776;SDS011;54576;52.020;5.536;2022-07-29T05:12:23;9.00;;;2.20;;
67776;SDS011;54576;52.020;5.536;2022-07-29T05:14:49;3.15;;;1.52;;
67776;SDS011;54576;52.020;5.536;2022-07-29T05:17:15;4.13;;;1.90;;
67776;SDS011;54576;52.020;5.536;2022-07-29T05:19:41;4.70;;;1.55;;
67776;SDS011;54576;52.020;5.536;2022-07-29T05:22:07;4.97;;;1.58;;
67776;SDS011;54576;52.020;5.536;2022-07-29T05:24:32;9.57;;;1.88;;
67776;SDS011;54576;52.020;5.536;2022-07-29T05:26:58;5.05;;;2.00;;
67776;SDS011;54576;52.020;5.536;2022-07-29T05:29:23;4.88;;;1.90;;
67776;SDS011;54576;52.020;5.536;2022-07-29T05:31:49;7.10;;;1.70;;
67776;SDS011;54576;52.020;5.536;2022-07-29T05:34:16;6.32;;;1.67;;
67776;SDS011;54576;52.020;5.536;2022-07-29T05:36:43;4.25;;;1.60;;
67776;SDS011;54576;52.020;5.536;2022-07-29T05:39:10;5.80;;;1.90;;
67776;SDS011;54576;52.020;5.536;2022-07-29T05:41:35;5.13;;;1.73;;
67776;SDS011;54576;52.020;5.536;2022-07-29T05:44:01;9.95;;;1.83;;
67776;SDS011;54576;52.020;5.536;2022-07-29T05:46:27;6.72;;;1.77;;
67776;SDS011;54576;52.020;5.536;2022-07-29T05:48:53;3.60;;;1.80;;
67776;SDS011;54576;52.020;5.536;2022-07-29T05:51:19;4.07;;;1.85;;
67776;SDS011;54576;52.020;5.536;2022-07-29T05:53:44;5.70;;;2.10;;
67776;SDS011;54576;52.020;5.536;2022-07-29T05:56:10;8.57;;;1.50;;
67776;SDS011;54576;52.020;5.536;2022-07-29T05:58:35;3.30;;;1.92;;
67776;SDS011;54576;52.020;5.536;2022-07-29T06:01:01;5.32;;;2.10;;
67776;SDS011;54576;52.020;5.536;2022-07-29T06:03:27;5.47;;;1.83;;
67776;SDS011;54576;52.020;5.536;2022-07-29T06:05:53;3.65;;;1.63;;
67776;SDS011;54576;52.020;5.536;2022-07-29T06:08:19;2.78;;;1.52;;
67776;SDS011;54576;52.020;5.536;2022-07-29T06:10:45;2.53;;;1.60;;
67776;SDS011;54576;52.020;5.536;2022-07-29T06:13:11;3.25;;;1.70;;
67776;SDS011;54576;52.020;5.536;2022-07-29T06:15:38;2.42;;;1.50;;
67776;SDS011;54576;52.020;5.536;2022-07-29T06:18:03;3.88;;;2.20;;
67776;SDS011;54576;52.020;5.536;2022-07-29T06:20:32;7.97;;;2.20;;
67776;SDS011;54576;52.020;5.536;2022-07-29T06:22:58;3.28;;;1.80;;
67776;SDS011;54576;52.020;5.536;2022-07-29T06:25:24;7.65;;;1.77;;
67776;SDS011;54576;52.020;5.536;2022-07-29T06:27:49;2.75;;;1.80;;
67776;SDS011;54576;52.020;5.536;2022-07-29T06:30:15;6.10;;;2.05;;
67776;SDS011;54576;52.020;5.536;2022-07-29T06:32:40;7.68;;;2.22;;
67776;SDS011;54576;52.020;5.536;2022-07-29T06:35:06;6.45;;;2.10;;
67776;SDS011;54576;52.020;5.536;2022-07-29T06:37:32;3.35;;;1.80;;
67776;SDS011;54576;52.020;5.536;2022-07-29T06:39:58;5.85;;;2.33;;
67776;SDS011;54576;52.020;5.536;2022-07-29T06:42:42;4.22;;;1.75;;
67776;SDS011;54576;52.020;5.536;2022-07-29T06:45:09;2.70;;;1.98;;
67776;SDS011;54576;52.020;5.536;2022-07-29T06:47:35;6.60;;;2.00;;
67776;SDS011;54576;52.020;5.536;2022-07-29T06:50:01;5.45;;;2.20;;
67776;SDS011;54576;52.020;5.536;2022-07-29T06:52:27;3.67;;;1.70;;
67776;SDS011;54576;52.020;5.536;2022-07-29T06:54:53;5.78;;;1.98;;
67776;SDS011;54576;52.020;5.536;2022-07-29T06:57:19;5.30;;;1.65;;
67776;SDS011;54576;52.020;5.536;2022-07-29T06:59:46;4.38;;;2.15;;
67776;SDS011;54576;52.020;5.536;2022-07-29T07:02:11;4.75;;;1.92;;
67776;SDS011;54576;52.020;5.536;2022-07-29T07:04:37;5.35;;;1.60;;
67776;SDS011;54576;52.020;5.536;2022-07-29T07:07:02;7.78;;;2.10;;
67776;SDS011;54576;52.020;5.536;2022-07-29T07:09:28;4.57;;;2.30;;
67776;SDS011;54576;52.020;5.536;2022-07-29T07:11:53;9.65;;;2.15;;
67776;SDS011;54576;52.020;5.536;2022-07-29T07:14:19;7.93;;;2.00;;
67776;SDS011;54576;52.020;5.536;2022-07-29T07:16:44;7.00;;;2.10;;
67776;SDS011;54576;52.020;5.536;2022-07-29T07:19:10;4.75;;;2.05;;
67776;SDS011;54576;52.020;5.536;2022-07-29T07:21:36;6.47;;;2.28;;
67776;SDS011;54576;52.020;5.536;2022-07-29T07:24:01;4.53;;;2.05;;
67776;SDS011;54576;52.020;5.536;2022-07-29T07:26:27;5.90;;;1.90;;
67776;SDS011;54576;52.020;5.536;2022-07-29T07:28:53;6.30;;;2.28;;
67776;SDS011;54576;52.020;5.536;2022-07-29T07:31:18;7.50;;;2.10;;
67776;SDS011;54576;52.020;5.536;2022-07-29T07:33:44;5.95;;;2.20;;
67776;SDS011;54576;52.020;5.536;2022-07-29T07:36:11;5.90;;;2.13;;
67776;SDS011;54576;52.020;5.536;2022-07-29T07:38:37;16.63;;;2.38;;
67776;SDS011;54576;52.020;5.536;2022-07-29T07:41:03;5.95;;;1.95;;
67776;SDS011;54576;52.020;5.536;2022-07-29T07:43:28;1.90;;;1.70;;
67776;SDS011;54576;52.020;5.536;2022-07-29T07:45:54;4.80;;;2.05;;
67776;SDS011;54576;52.020;5.536;2022-07-29T07:48:20;4.60;;;2.28;;
67776;SDS011;54576;52.020;5.536;2022-07-29T07:50:45;7.60;;;2.08;;
67776;SDS011;54576;52.020;5.536;2022-07-29T07:53:11;5.93;;;2.05;;
67776;SDS011;54576;52.020;5.536;2022-07-29T07:55:40;3.53;;;2.10;;
67776;SDS011;54576;52.020;5.536;2022-07-29T07:58:07;7.53;;;2.22;;
67776;SDS011;54576;52.020;5.536;2022-07-29T08:00:33;17.15;;;4.15;;
67776;SDS011;54576;52.020;5.536;2022-07-29T08:02:59;9.77;;;2.00;;
67776;SDS011;54576;52.020;5.536;2022-07-29T08:05:24;11.50;;;2.20;;
67776;SDS011;54576;52.020;5.536;2022-07-29T08:07:50;7.88;;;2.55;;
67776;SDS011;54576;52.020;5.536;2022-07-29T08:10:16;6.30;;;2.05;;
67776;SDS011;54576;52.020;5.536;2022-07-29T08:13:07;11.50;;;2.92;;
67776;SDS011;54576;52.020;5.536;2022-07-29T08:15:34;6.85;;;2.22;;
67776;SDS011;54576;52.020;5.536;2022-07-29T08:18:00;4.50;;;2.17;;
67776;SDS011;54576;52.020;5.536;2022-07-29T08:20:26;12.73;;;2.50;;
67776;SDS011;54576;52.020;5.536;2022-07-29T08:22:51;6.28;;;2.45;;
67776;SDS011;54576;52.020;5.536;2022-07-29T08:25:17;12.38;;;2.53;;
67776;SDS011;54576;52.020;5.536;2022-07-29T08:27:45;7.38;;;2.33;;
67776;SDS011;54576;52.020;5.536;2022-07-29T08:30:12;9.52;;;2.97;;
67776;SDS011;54576;52.020;5.536;2022-07-29T08:32:38;4.00;;;2.22;;
67776;SDS011;54576;52.020;5.536;2022-07-29T08:35:04;5.15;;;2.08;;
67776;SDS011;54576;52.020;5.536;2022-07-29T08:37:30;8.77;;;2.63;;
67776;SDS011;54576;52.020;5.536;2022-07-29T08:39:55;5.53;;;2.35;;
67776;SDS011;54576;52.020;5.536;2022-07-29T08:42:21;3.63;;;2.22;;
67776;SDS011;54576;52.020;5.536;2022-07-29T08:44:47;6.05;;;2.13;;
67776;SDS011;54576;52.020;5.536;2022-07-29T08:47:14;7.43;;;2.30;;
67776;SDS011;54576;52.020;5.536;2022-07-29T08:49:40;8.05;;;2.15;;
67776;SDS011;54576;52.020;5.536;2022-07-29T08:52:06;11.23;;;2.40;;
67776;SDS011;54576;52.020;5.536;2022-07-29T08:54:32;5.90;;;2.72;;
67776;SDS011;54576;52.020;5.536;2022-07-29T08:56:58;10.70;;;2.20;;
67776;SDS011;54576;52.020;5.536;2022-07-29T08:59:25;4.43;;;2.15;;
67776;SDS011;54576;52.020;5.536;2022-07-29T09:01:52;6.07;;;2.10;;
67776;SDS011;54576;52.020;5.536;2022-07-29T09:04:19;6.00;;;2.80;;
67776;SDS011;54576;52.020;5.536;2022-07-29T09:06:46;15.73;;;3.20;;
67776;SDS011;54576;52.020;5.536;2022-07-29T09:09:14;7.25;;;2.70;;
67776;SDS011;54576;52.020;5.536;2022-07-29T09:11:40;8.45;;;2.40;;
67776;SDS011;54576;52.020;5.536;2022-07-29T09:14:07;5.47;;;2.60;;
67776;SDS011;54576;52.020;5.536;2022-07-29T09:16:46;9.50;;;3.03;;
67776;SDS011;54576;52.020;5.536;2022-07-29T09:19:18;7.47;;;3.00;;
67776;SDS011;54576;52.020;5.536;2022-07-29T09:22:05;5.35;;;2.70;;
67776;SDS011;54576;52.020;5.536;2022-07-29T09:27:00;6.35;;;2.83;;
67776;SDS011;54576;52.020;5.536;2022-07-29T09:29:26;15.70;;;2.80;;
67776;SDS011;54576;52.020;5.536;2022-07-29T09:31:53;25.38;;;3.28;;
67776;SDS011;54576;52.020;5.536;2022-07-29T09:34:23;7.07;;;2.40;;
67776;SDS011;54576;52.020;5.536;2022-07-29T09:36:51;8.40;;;2.05;;
67776;SDS011;54576;52.020;5.536;2022-07-29T09:39:31;12.63;;;2.50;;
67776;SDS011;54576;52.020;5.536;2022-07-29T09:41:59;8.40;;;2.30;;
67776;SDS011;54576;52.020;5.536;2022-07-29T09:44:27;11.48;;;2.22;;
67776;SDS011;54576;52.020;5.536;2022-07-29T09:47:10;8.70;;;2.45;;
67776;SDS011;54576;52.020;5.536;2022-07-29T09:49:49;8.25;;;2.20;;
67776;SDS011;54576;52.020;5.536;2022-07-29T09:52:20;10.45;;;1.92;;
67776;SDS011;54576;52.020;5.536;2022-07-29T09:54:46;9.95;;;2.72;;
67776;SDS011;54576;52.020;5.536;2022-07-29T09:57:25;8.85;;;2.85;;
67776;SDS011;54576;52.020;5.536;2022-07-29T09:59:56;4.40;;;2.00;;
67776;SDS011;54576;52.020;5.536;2022-07-29T10:02:34;6.60;;;2.40;;
67776;SDS011;54576;52.020;5.536;2022-07-29T10:05:03;10.95;;;2.05;;
67776;SDS011;54576;52.020;5.536;2022-07-29T10:07:42;10.52;;;2.25;;
67776;SDS011;54576;52.020;5.536;2022-07-29T10:12:56;9.88;;;2.80;;
67776;SDS011;54576;52.020;5.536;2022-07-29T10:15:24;6.30;;;2.08;;
67776;SDS011;54576;52.020;5.536;2022-07-29T10:17:51;12.07;;;2.47;;
67776;SDS011;54576;52.020;5.536;2022-07-29T10:20:18;5.90;;;2.20;;
67776;SDS011;54576;52.020;5.536;2022-07-29T10:22:46;7.90;;;2.40;;
67776;SDS011;54576;52.020;5.536;2022-07-29T10:25:13;11.57;;;2.60;;
67776;SDS011;54576;52.020;5.536;2022-07-29T10:27:40;7.78;;;2.40;;
67776;SDS011;54576;52.020;5.536;2022-07-29T10:30:07;6.75;;;2.35;;
67776;SDS011;54576;52.020;5.536;2022-07-29T10:43:49;6.30;;;2.40;;
67776;SDS011;54576;52.020;5.536;2022-07-29T10:46:17;4.57;;;1.92;;
67776;SDS011;54576;52.020;5.536;2022-07-29T10:57:15;10.60;;;3.45;;
67776;SDS011;54576;52.020;5.536;2022-07-29T10:59:49;8.80;;;2.65;;
67776;SDS011;54576;52.020;5.536;2022-07-29T11:05:07;15.60;;;3.45;;
67776;SDS011;54576;52.020;5.536;2022-07-29T11:07:35;12.52;;;3.00;;
67776;SDS011;54576;52.020;5.536;2022-07-29T11:15:05;7.20;;;2.55;;
67776;SDS011;54576;52.020;5.536;2022-07-29T11:20:34;10.65;;;2.47;;
67776;SDS011;54576;52.020;5.536;2022-07-29T11:23:28;7.65;;;2.78;;
67776;SDS011;54576;52.020;5.536;2022-07-29T11:28:52;5.57;;;2.63;;
67776;SDS011;54576;52.020;5.536;2022-07-29T11:39:36;16.70;;;2.60;;
67776;SDS011;54576;52.020;5.536;2022-07-29T11:47:27;13.55;;;3.05;;
67776;SDS011;54576;52.020;5.536;2022-07-29T11:49:54;8.55;;;2.58;;
67776;SDS011;54576;52.020;5.536;2022-07-29T11:52:22;12.38;;;2.80;;
67776;SDS011;54576;52.020;5.536;2022-07-29T11:54:49;10.90;;;2.42;;
67776;SDS011;54576;52.020;5.536;2022-07-29T11:57:16;14.73;;;2.78;;
67776;SDS011;54576;52.020;5.536;2022-07-29T11:59:45;8.90;;;2.60;;
67776;SDS011;54576;52.020;5.536;2022-07-29T12:02:12;18.67;;;2.90;;
67776;SDS011;54576;52.020;5.536;2022-07-29T12:07:32;9.20;;;2.45;;
67776;SDS011;54576;52.020;5.536;2022-07-29T12:09:59;5.43;;;2.70;;
67776;SDS011;54576;52.020;5.536;2022-07-29T12:12:25;11.80;;;2.95;;
67776;SDS011;54576;52.020;5.536;2022-07-29T12:14:51;9.27;;;2.63;;
67776;SDS011;54576;52.020;5.536;2022-07-29T12:17:30;17.27;;;2.63;;
67776;SDS011;54576;52.020;5.536;2022-07-29T12:20:01;2.15;;;2.00;;
67776;SDS011;54576;52.020;5.536;2022-07-29T12:22:29;14.45;;;2.85;;
67776;SDS011;54576;52.020;5.536;2022-07-29T12:25:00;12.07;;;2.63;;
67776;SDS011;54576;52.020;5.536;2022-07-29T12:27:28;17.45;;;2.70;;
67776;SDS011;54576;52.020;5.536;2022-07-29T12:29:57;8.23;;;2.53;;
67776;SDS011;54576;52.020;5.536;2022-07-29T12:32:36;5.72;;;2.85;;
67776;SDS011;54576;52.020;5.536;2022-07-29T12:35:04;4.95;;;2.78;;
67776;SDS011;54576;52.020;5.536;2022-07-29T12:37:37;12.60;;;2.95;;
67776;SDS011;54576;52.020;5.536;2022-07-29T12:40:06;13.73;;;2.60;;
67776;SDS011;54576;52.020;5.536;2022-07-29T12:42:36;12.88;;;3.22;;
67776;SDS011;54576;52.020;5.536;2022-07-29T12:45:02;10.20;;;3.10;;
67776;SDS011;54576;52.020;5.536;2022-07-29T12:47:32;6.72;;;2.80;;
67776;SDS011;54576;52.020;5.536;2022-07-29T12:50:10;5.32;;;2.67;;
67776;SDS011;54576;52.020;5.536;2022-07-29T12:52:39;13.20;;;3.42;;
67776;SDS011;54576;52.020;5.536;2022-07-29T12:55:05;9.02;;;2.72;;
67776;SDS011;54576;52.020;5.536;2022-07-29T12:57:31;15.38;;;2.63;;
67776;SDS011;54576;52.020;5.536;2022-07-29T13:00:10;13.00;;;3.33;;
67776;SDS011;54576;52.020;5.536;2022-07-29T13:02:38;12.32;;;2.80;;
67776;SDS011;54576;52.020;5.536;2022-07-29T13:07:35;13.77;;;2.78;;
67776;SDS011;54576;52.020;5.536;2022-07-29T13:10:17;7.22;;;2.45;;
67776;SDS011;54576;52.020;5.536;2022-07-29T13:13:04;14.80;;;2.78;;
67776;SDS011;54576;52.020;5.536;2022-07-29T13:15:33;15.02;;;3.05;;
67776;SDS011;54576;52.020;5.536;2022-07-29T13:17:58;5.28;;;2.65;;
67776;SDS011;54576;52.020;5.536;2022-07-29T13:20:25;17.75;;;2.40;;
67776;SDS011;54576;52.020;5.536;2022-07-29T13:22:56;20.88;;;2.80;;
67776;SDS011;54576;52.020;5.536;2022-07-29T13:25:23;11.43;;;2.20;;
67776;SDS011;54576;52.020;5.536;2022-07-29T13:27:50;9.23;;;2.55;;
67776;SDS011;54576;52.020;5.536;2022-07-29T13:30:16;7.93;;;2.30;;
67776;SDS011;54576;52.020;5.536;2022-07-29T13:32:41;10.15;;;2.70;;
67776;SDS011;54576;52.020;5.536;2022-07-29T13:35:07;6.55;;;2.17;;
67776;SDS011;54576;52.020;5.536;2022-07-29T13:37:34;5.05;;;2.58;;
67776;SDS011;54576;52.020;5.536;2022-07-29T13:40:03;9.20;;;2.53;;
67776;SDS011;54576;52.020;5.536;2022-07-29T13:42:30;8.98;;;2.42;;
67776;SDS011;54576;52.020;5.536;2022-07-29T13:44:56;13.02;;;2.10;;
67776;SDS011;54576;52.020;5.536;2022-07-29T13:47:22;6.68;;;2.22;;
67776;SDS011;54576;52.020;5.536;2022-07-29T13:49:48;5.30;;;2.28;;
67776;SDS011;54576;52.020;5.536;2022-07-29T13:52:14;8.82;;;2.13;;
67776;SDS011;54576;52.020;5.536;2022-07-29T13:54:40;9.88;;;2.05;;
67776;SDS011;54576;52.020;5.536;2022-07-29T13:57:06;11.75;;;3.20;;
67776;SDS011;54576;52.020;5.536;2022-07-29T13:59:32;8.95;;;3.28;;
67776;SDS011;54576;52.020;5.536;2022-07-29T14:01:58;8.30;;;2.65;;
67776;SDS011;54576;52.020;5.536;2022-07-29T14:04:24;6.80;;;1.80;;
67776;SDS011;54576;52.020;5.536;2022-07-29T14:06:50;15.45;;;2.70;;
67776;SDS011;54576;52.020;5.536;2022-07-29T14:09:16;12.45;;;2.55;;
67776;SDS011;54576;52.020;5.536;2022-07-29T14:11:42;7.78;;;2.28;;
67776;SDS011;54576;52.020;5.536;2022-07-29T14:14:07;13.10;;;2.75;;
67776;SDS011;54576;52.020;5.536;2022-07-29T14:16:35;2.17;;;1.70;;
67776;SDS011;54576;52.020;5.536;2022-07-29T14:19:00;5.82;;;2.22;;
67776;SDS011;54576;52.020;5.536;2022-07-29T14:21:26;12.38;;;2.40;;
67776;SDS011;54576;52.020;5.536;2022-07-29T14:23:51;10.27;;;2.42;;
67776;SDS011;54576;52.020;5.536;2022-07-29T14:26:19;5.50;;;1.98;;
67776;SDS011;54576;52.020;5.536;2022-07-29T14:28:45;7.50;;;3.13;;
67776;SDS011;54576;52.020;5.536;2022-07-29T14:31:10;3.50;;;2.00;;
67776;SDS011;54576;52.020;5.536;2022-07-29T14:33:36;5.63;;;1.98;;
67776;SDS011;54576;52.020;5.536;2022-07-29T14:36:02;5.80;;;1.55;;
67776;SDS011;54576;52.020;5.536;2022-07-29T14:38:28;6.13;;;1.60;;
67776;SDS011;54576;52.020;5.536;2022-07-29T14:40:53;8.52;;;2.03;;
67776;SDS011;54576;52.020;5.536;2022-07-29T14:43:19;6.85;;;2.35;;
67776;SDS011;54576;52.020;5.536;2022-07-29T14:45:45;4.88;;;2.10;;
67776;SDS011;54576;52.020;5.536;2022-07-29T14:48:10;12.20;;;2.50;;
67776;SDS011;54576;52.020;5.536;2022-07-29T14:50:39;5.97;;;1.73;;
67776;SDS011;54576;52.020;5.536;2022-07-29T14:53:05;9.55;;;2.05;;
67776;SDS011;54576;52.020;5.536;2022-07-29T14:55:30;9.43;;;2.30;;
67776;SDS011;54576;52.020;5.536;2022-07-29T14:57:56;4.15;;;2.05;;
67776;SDS011;54576;52.020;5.536;2022-07-29T15:00:22;8.90;;;2.13;;
67776;SDS011;54576;52.020;5.536;2022-07-29T15:02:47;10.93;;;1.90;;
67776;SDS011;54576;52.020;5.536;2022-07-29T15:05:13;12.52;;;2.47;;
67776;SDS011;54576;52.020;5.536;2022-07-29T15:07:39;8.07;;;2.40;;
67776;SDS011;54576;52.020;5.536;2022-07-29T15:10:04;3.80;;;1.98;;
67776;SDS011;54576;52.020;5.536;2022-07-29T15:12:31;4.80;;;1.77;;
67776;SDS011;54576;52.020;5.536;2022-07-29T15:14:57;12.38;;;2.35;;
67776;SDS011;54576;52.020;5.536;2022-07-29T15:17:23;4.57;;;1.52;;
67776;SDS011;54576;52.020;5.536;2022-07-29T15:19:48;6.10;;;1.77;;
67776;SDS011;54576;52.020;5.536;2022-07-29T15:22:14;5.45;;;2.13;;
67776;SDS011;54576;52.020;5.536;2022-07-29T15:24:42;11.13;;;1.88;;
67776;SDS011;54576;52.020;5.536;2022-07-29T15:27:07;5.00;;;1.88;;
67776;SDS011;54576;52.020;5.536;2022-07-29T15:29:38;11.25;;;2.45;;
67776;SDS011;54576;52.020;5.536;2022-07-29T15:32:08;9.25;;;2.40;;
67776;SDS011;54576;52.020;5.536;2022-07-29T15:34:34;9.63;;;2.08;;
67776;SDS011;54576;52.020;5.536;2022-07-29T15:37:04;13.30;;;2.03;;
67776;SDS011;54576;52.020;5.536;2022-07-29T15:39:30;15.48;;;2.33;;
67776;SDS011;54576;52.020;5.536;2022-07-29T15:41:56;8.10;;;2.40;;
67776;SDS011;54576;52.020;5.536;2022-07-29T15:44:24;11.27;;;2.22;;
67776;SDS011;54576;52.020;5.536;2022-07-29T15:46:49;7.50;;;2.55;;
67776;SDS011;54576;52.020;5.536;2022-07-29T15:49:27;12.32;;;3.13;;
67776;SDS011;54576;52.020;5.536;2022-07-29T15:52:00;17.13;;;2.50;;
67776;SDS011;54576;52.020;5.536;2022-07-29T15:54:28;7.55;;;2.50;;
67776;SDS011;54576;52.020;5.536;2022-07-29T15:56:55;11.98;;;2.78;;
67776;SDS011;54576;52.020;5.536;2022-07-29T15:59:21;15.70;;;3.40;;
67776;SDS011;54576;52.020;5.536;2022-07-29T16:01:47;15.98;;;3.00;;
67776;SDS011;54576;52.020;5.536;2022-07-29T16:04:13;10.23;;;2.90;;
67776;SDS011;54576;52.020;5.536;2022-07-29T16:06:39;10.02;;;3.00;;
67776;SDS011;54576;52.020;5.536;2022-07-29T16:09:05;10.80;;;2.80;;
67776;SDS011;54576;52.020;5.536;2022-07-29T16:11:31;5.85;;;2.70;;
67776;SDS011;54576;52.020;5.536;2022-07-29T16:13:57;7.25;;;2.15;;
67776;SDS011;54576;52.020;5.536;2022-07-29T16:16:23;5.13;;;2.35;;